ADDS METAR Data INFO
IDs: Format: Raw Decoded Include TAF

Data at: 1358 UTC 17 Dec 2017

KMSV 171356Z AUTO 30005KT 10SM BKN035 OVC050 M05/M09 A3023 RMK AO2 SLP258 T10501089 FZRANO
KMSV 171256Z AUTO 27003KT 10SM OVC031 M06/M09 A3022 RMK AO2 SLP254 T10611089 FZRANO
KMSV 171223Z AUTO 27003KT 10SM SCT028 OVC035 M06/M09 A3022 RMK AO2 FZRANO TSNO
KMSV 171156Z AUTO 30003KT 10SM OVC028 M06/M09 A3020 RMK AO2 SLP247 T10611089 11056 21061 55002 FZRANO
KMSV 171056Z AUTO 31004KT 10SM OVC028 M06/M09 A3018 RMK AO2 SLP242 T10611089 FZRANO
KMSV 170956Z AUTO 29005KT 10SM OVC019 M06/M09 A3020 RMK AO2 SLP246 T10611089 FZRANO
KMSV 170856Z AUTO 26005KT 10SM BKN021 OVC037 M06/M09 A3020 RMK AO2 SLP248 T10561089 53021 FZRANO
KMSV 170839Z AUTO 28005KT 10SM SCT023 OVC037 M06/M09 A3019 RMK AO2 FZRANO
KMSV 170756Z AUTO 25004KT 10SM OVC025 M06/M08 A3018 RMK AO2 SLP241 T10561083 FZRANO
KMSV 170711Z AUTO 27003KT 10SM BKN025 OVC033 M06/M08 A3016 RMK AO2 FZRANO
KMSV 170656Z AUTO 26003KT 10SM SCT025 OVC036 M06/M08 A3016 RMK AO2 SLP233 T10561083 FZRANO
KMSV 170556Z AUTO 00000KT 10SM OVC041 M06/M08 A3014 RMK AO2 SLP226 60000 T10561083 11039 21061 50004 FZRANO
KMSV 170456Z AUTO 00000KT 10SM OVC032 M06/M08 A3014 RMK AO2 SLP227 T10611078 410221111 FZRANO
KMSV 170356Z AUTO 00000KT 10SM OVC021 M06/M08 A3013 RMK AO2 SLP226 T10561078 FZRANO
KMSV 170256Z AUTO 00000KT 10SM BKN025 OVC033 M06/M08 A3013 RMK AO2 SLP223 60000 T10561078 51024 FZRANO
KMSV 170229Z AUTO 29003KT 10SM BKN023 OVC035 M05/M07 A3012 RMK AO2 FZRANO
KMSV 170156Z AUTO 26003KT 10SM OVC033 M05/M08 A3011 RMK AO2 SLP218 T10501078 FZRANO
KMSV 170056Z AUTO 30007KT 10SM OVC060 M04/M08 A3009 RMK AO2 SNE33 SLP211 P0000 T10441078 FZRANO
KMSV 162356Z AUTO 29008KT 9SM -SN BKN045 OVC055 M04/M06 A3005 RMK AO2 SLP198 P0000 60000 T10391061 11022 21039 51035 FZRANO
KMSV 162256Z AUTO 29009G15KT 9SM -SN FEW050 M04/M07 A3002 RMK AO2 SLP188 P0000 T10391067 FZRANO
KMSV 162156Z AUTO 29007KT 4SM -SN BR FEW031 M03/M05 A2998 RMK AO2 SLP175 P0000 T10331050 FZRANO
KMSV 162128Z AUTO 29006KT 3SM -SN BR SCT023 SCT031 OVC041 M03/M04 A2997 RMK AO2 P0000 FZRANO
KMSV 162056Z AUTO 28006KT 2 1/2SM -SN BR OVC027 M03/M05 A2994 RMK AO2 VIS 1 3/4V3 SLP162 P0000 60000 T10331050 53008 FZRANO
KMSV 162026Z AUTO 29007KT 3SM -SN BR OVC024 M03/M05 A2993 RMK AO2 P0000 FZRANO
KMSV 162007Z AUTO 27005KT 2 1/2SM -SN BR OVC022 M03/M05 A2992 RMK AO2 VIS 1 3/4V5 P0000 FZRANO
KMSV 161956Z AUTO 28006KT 1 3/4SM -SN BR OVC020 M03/M05 A2992 RMK AO2 VIS 1 1/4V2 1/2 SLP154 P0000 T10281050 FZRANO
KMSV 161954Z AUTO 28005KT 1 3/4SM -SN BR OVC020 M03/M05 A2992 RMK AO2 VIS 1 1/4V2 1/2 P0000 FZRANO
KMSV 161945Z AUTO 29005KT 2SM -SN BR OVC020 M03/M05 A2992 RMK AO2 P0000 FZRANO
KMSV 161856Z AUTO 29005KT 7SM -SN OVC020 M03/M06 A2990 RMK AO2 SLP145 P0000 T10281056 FZRANO
KMSV 161810Z AUTO 29005KT 4SM -SN BKN018 BKN027 OVC060 M02/M06 A2989 RMK AO2 P0000 FZRANO
KMSV 161756Z AUTO 28004KT 2SM -SN BKN018 BKN028 OVC060 M02/M06 A2988 RMK AO2 VIS 1 1/4V3 SLP141 P0000 60000 T10221056 11022 21083 58018 FZRANO
KMSV 161748Z AUTO 30003KT 4SM -SN SCT016 BKN021 OVC060 M03/M06 A2989 RMK AO2 P0000 FZRANO
KMSV 161656Z AUTO 28003KT 1 3/4SM -SN BKN023 OVC032 M04/M07 A2990 RMK AO2 VIS 1V4 SLP149 P0000 T10391067 FZRANO
KMSV 161556Z AUTO 28004KT 4SM -SN BKN025 BKN031 M05/M08 A2993 RMK AO2 SLP159 P0000 T10501083 FZRANO
KMSV 161526Z AUTO 28005KT 4SM -SN BKN025 M05/M08 A2994 RMK AO2 P0000 FZRANO
KMSV 161456Z AUTO 28005KT 4SM -SN CLR M05/M09 A2994 RMK AO2 SLP162 P0000 60000 T10501089 51020 FZRANO
KMSV 161433Z AUTO 26005KT 9SM -SN SCT029 M06/M09 A2994 RMK AO2 P0000 FZRANO
KMSV 161356Z AUTO 27006KT 9SM -SN OVC029 M07/M10 A2993 RMK AO2 SNB33 SLP159 P0000 T10671100 FZRANO
KMSV 161319Z AUTO 25005KT 10SM BKN029 M08/M10 A2992 RMK AO2 FZRANO
KMSV 161256Z AUTO 26005KT 9SM FEW029 M08/M11 A2990 RMK AO2 SNB26E53 SLP150 P0000 T10781106 FZRANO
KMSV 161156Z AUTO 25008KT 9SM CLR M08/M11 A2988 RMK AO2 SNB26E54 SLP142 P0000 60000 7//// T10831106 11072 21100 53012 FZRANO
KMSV 161056Z AUTO 27006KT 10SM CLR M09/M11 A2986 RMK AO2 SNE17 SLP136 P0000 T10891106 FZRANO
KMSV 160956Z AUTO 26007KT 9SM -SN FEW024 BKN055 M08/M09 A2985 RMK AO2 SLP131 P0000 T10781094 FZRANO
KMSV 160856Z AUTO 27009KT 9SM -SN BKN060 M08/M10 A2984 RMK AO2 SLP130 P0000 60000 T10831100 51013 FZRANO
KMSV 160756Z AUTO 24006KT 9SM -SN FEW031 SCT060 M08/M10 A2984 RMK AO2 SNB0659 SLP128 P0000 T10831100 FZRANO
KMSV 160656Z AUTO 27008KT 10SM OVC060 M08/M10 A2981 RMK AO2 SNB02E28 SLP119 P0000 T10831100 FZRANO
KMSV 160556Z AUTO 26006KT 10SM BKN070 M10/M11 A2980 RMK AO2 SNB06E20 SLP116 P0000 60000 T11001111 11083 21111 52001 FZRANO
KMSV 160456Z AUTO 27004KT 10SM FEW050 M11/M12 A2980 RMK AO2 SNE42 SLP117 P0000 T11111122 410611172 FZRANO
KMSV 160356Z AUTO 28003KT 9SM -SN CLR M10/M11 A2980 RMK AO2 SNB37 SLP118 P0000 T11001106 FZRANO
KMSV 160256Z AUTO 27004KT 10SM FEW014 BKN080 BKN100 M09/M11 A2980 RMK AO2 SNE21 SLP117 P0000 60000 T10941106 56003 FZRANO
KMSV 160245Z AUTO 28003KT 10SM SCT014 SCT080 BKN100 M09/M11 A2980 RMK AO2 SNE21 P0000 FZRANO
KMSV 160226Z AUTO 28004KT 9SM BKN014 M09/M11 A2980 RMK AO2 SNE21 P0000 FZRANO
KMSV 160213Z AUTO 27005KT 9SM -SN SCT012 SCT120 M09/M11 A2980 RMK AO2 P0000 FZRANO